ADDS METAR Data INFO
IDs: Format: Raw Decoded Include TAF

Data at: 1744 UTC 15 Dec 2017

KHBV 151735Z AUTO 00000KT 10SM -DZ SCT044 OVC055 08/06 A3037 RMK AO2 T00800059
KHBV 151715Z AUTO 00000KT 10SM -RA OVC055 08/06 A3037 RMK AO2 T00800058
KHBV 151655Z AUTO 32006KT 10SM -DZ SCT060 OVC065 08/06 A3038 RMK AO2 P0001 T00780057
KHBV 151635Z AUTO 00000KT 10SM -DZ SCT049 BKN075 OVC080 08/06 A3037 RMK AO2 P0001 T00760059
KHBV 151615Z AUTO 00000KT 10SM -DZ SCT047 SCT055 OVC090 07/05 A3037 RMK AO2 P0001 T00730054
KHBV 151555Z AUTO 00000KT 10SM -RA SCT065 OVC090 07/05 A3034 RMK AO2 P0001 T00700051
KHBV 151535Z AUTO 00000KT 10SM -RA SCT038 BKN047 OVC090 07/05 A3034 RMK AO2 P0001 T00680050
KHBV 151515Z AUTO 02004KT 10SM -RA SCT035 BKN042 OVC090 07/05 A3032 RMK AO2 P0001 T00660050
KHBV 151455Z AUTO 02008KT 10SM RA SCT036 BKN046 OVC055 07/05 A3030 RMK AO2 P0002 60005 T00650050
KHBV 151435Z AUTO 01007KT 10SM -RA SCT037 BKN055 OVC090 07/05 A3029 RMK AO2 P0001 T00650049
KHBV 151415Z AUTO 01009G16KT 10SM -RA SCT080 OVC090 07/05 A3028 RMK AO2 P0001 T00660049
KHBV 151355Z AUTO 01010G15KT 10SM DZ BKN080 OVC100 07/05 A3027 RMK AO2 P0002 T00670051
KHBV 151335Z AUTO 01011G15KT 10SM -RA SCT065 OVC080 07/05 A3027 RMK AO2 P0002 T00700054
KHBV 151315Z AUTO 01009KT 10SM -RA BKN065 OVC080 07/05 A3027 RMK AO2 T00710053
KHBV 151255Z AUTO 01010KT 10SM -RA SCT065 OVC090 07/05 A3026 RMK AO2 P0001 T00730050
KHBV 151235Z AUTO 01012KT 10SM -RA SCT080 OVC090 08/05 A3024 RMK AO2 T00750048
KHBV 151215Z AUTO 02013G19KT 10SM SCT080 OVC100 08/05 A3022 RMK AO2 T00770047
KHBV 151155Z AUTO 02015G19KT 10SM -RA SCT070 BKN090 OVC100 08/05 A3021 RMK AO2 60008 70008 T00790049 10214 21001
KHBV 151135Z AUTO 02015G19KT 10SM -RA BKN070 OVC080 08/05 A3020 RMK AO2 T00800054
KHBV 151115Z AUTO 01011KT 10SM -DZ BKN070 OVC080 08/06 A3021 RMK AO2 T00800056
KHBV 151055Z AUTO 02011G15KT 10SM -RA BKN070 OVC080 08/06 A3019 RMK AO2 P0002 T00810056
KHBV 151035Z AUTO 02012KT 10SM -RA BKN070 OVC080 08/06 A3019 RMK AO2 P0001 T00840058
KHBV 151015Z AUTO 02011KT 10SM DZ BKN070 OVC080 09/06 A3018 RMK AO2 T00870062
KHBV 150955Z AUTO 36009KT 10SM DZ BKN075 OVC080 09/07 A3019 RMK AO2 P0002 T00890065
KHBV 150935Z AUTO 01009KT 10SM RA OVC075 09/07 A3018 RMK AO2 P0001 T00910066
KHBV 150915Z AUTO 02008KT 10SM -RA OVC075 09/07 A3018 RMK AO2 P0001 T00940071
KHBV 150855Z AUTO 02006KT 10SM DZ SCT065 OVC075 10/08 A3018 RMK AO2 P0002 60004 T00960075
KHBV 150835Z AUTO 01007KT 10SM RA OVC065 10/08 A3017 RMK AO2 P0002 T00970080
KHBV 150815Z AUTO 02006KT 10SM -RA BKN070 OVC095 10/08 A3017 RMK AO2 P0001 T00990079
KHBV 150755Z AUTO 01006KT 10SM RA SCT060 BKN080 OVC095 10/08 A3016 RMK AO2 P0002 T01020080
KHBV 150735Z AUTO 01006KT 10SM -RA OVC080 11/08 A3016 RMK AO2 P0001 T01050079
KHBV 150715Z AUTO 01004KT 10SM RA OVC090 11/08 A3015 RMK AO2 T01070078
KHBV 150655Z AUTO 02005KT 10SM -RA OVC090 11/08 A3014 RMK AO2 T01120076
KHBV 150635Z AUTO 03005KT 10SM -RA OVC100 12/08 A3012 RMK AO2 T01160075
KHBV 150615Z AUTO 03004KT 10SM -DZ SCT025 OVC100 12/08 A3012 RMK AO2 T01180078
KHBV 150555Z AUTO 01005KT 10SM -RA OVC100 12/08 A3012 RMK AO2 T01200079 10214 21001 402141001
KHBV 150535Z AUTO 02004KT 10SM -DZ OVC100 13/08 A3011 RMK AO2 T01250075
KHBV 150515Z AUTO 02006KT 10SM -RA OVC100 13/07 A3010 RMK AO2 T01320070
KHBV 150455Z AUTO 01006KT 10SM -DZ OVC100 14/07 A3010 RMK AO2 T01360067
KHBV 150435Z AUTO 02005KT 10SM OVC100 14/07 A3009 RMK AO2 T01370067
KHBV 150415Z AUTO 02006KT 10SM OVC100 14/07 A3008 RMK AO2 T01390070
KHBV 150355Z AUTO 02006KT 10SM OVC100 14/07 A3007 RMK AO2 T01430072
KHBV 150335Z AUTO 02007KT 10SM OVC100 15/08 A3007 RMK AO2 T01450078
KHBV 150315Z AUTO 02007KT 10SM OVC100 15/09 A3006 RMK AO2 T01460088
KHBV 150255Z AUTO 03006KT 10SM OVC100 15/10 A3004 RMK AO2 T01470102
KHBV 150235Z AUTO 03004KT 10SM OVC100 15/11 A3003 RMK AO2 T01500107
KHBV 150215Z AUTO 00000KT 10SM BKN100 OVC120 15/11 A3003 RMK AO2 T01490113
KHBV 150155Z AUTO 00000KT 10SM BKN100 OVC120 15/12 A3002 RMK AO2 T01500115
KHBV 150135Z AUTO 00000KT 10SM OVC100 15/12 A3002 RMK AO2 T01500115
KHBV 150115Z AUTO 00000KT 10SM OVC100 15/12 A3001 RMK AO2 T01500115
KHBV 150055Z AUTO 00000KT 10SM BKN110 15/12 A2999 RMK AO2 T01510115
KHBV 150035Z AUTO 00000KT 10SM BKN110 16/11 A2998 RMK AO2 T01550114
KHBV 150015Z AUTO 00000KT 10SM OVC110 16/11 A2998 RMK AO2 T01610111
KHBV 142355Z AUTO 01004KT 10SM OVC110 16/11 A2997 RMK AO2 T01630110 10214 21001
KHBV 142335Z AUTO 36004KT 10SM OVC110 17/11 A2996 RMK AO2 T01680110
KHBV 142315Z AUTO 01003KT 10SM OVC110 17/11 A2995 RMK AO2 T01680107
KHBV 142255Z AUTO 04004KT 10SM OVC110 17/10 A2993 RMK AO2 T01700101
KHBV 142235Z AUTO 03005KT 10SM OVC100 18/10 A2993 RMK AO2 T01750096
KHBV 142215Z AUTO 01006KT 10SM OVC110 18/10 A2993 RMK AO2 T01800099
KHBV 142155Z AUTO 03004KT 10SM OVC110 19/09 A2993 RMK AO2 T01870094
KHBV 142135Z AUTO 09003KT 10SM OVC110 19/09 A2992 RMK AO2 T01900090
KHBV 142115Z AUTO 00000KT 10SM OVC110 20/08 A2994 RMK AO2 T01950082
KHBV 142055Z AUTO 00000KT 10SM OVC110 20/08 A2995 RMK AO2 T01950078
KHBV 142035Z AUTO 00000KT 10SM OVC110 20/08 A2994 RMK AO2 T01950078
KHBV 142015Z AUTO 00000KT 10SM OVC120 20/08 A2993 RMK AO2 T01950080
KHBV 141955Z AUTO 03004KT 10SM BKN120 19/08 A2993 RMK AO2 T01940082
KHBV 141935Z AUTO 00000KT 10SM SCT120 19/08 A2993 RMK AO2 T01940083
KHBV 141915Z AUTO 00000KT 10SM CLR 19/09 A2994 RMK AO2 T01890087
KHBV 141855Z AUTO 00000KT 10SM SCT120 18/09 A2996 RMK AO2 T01760090
KHBV 141835Z AUTO 00000KT 10SM CLR 17/09 A2998 RMK AO2 T01680088
KHBV 141815Z AUTO 00000KT 10SM CLR 17/09 A2997 RMK AO2 T01650089
KHBV 141755Z AUTO 00000KT 10SM CLR 16/09 A2996 RMK AO2 T01590090 10214 21001
KHBV 141735Z AUTO 00000KT 10SM SCT100 SCT120 15/09 A2998 RMK AO2 T01540091
KHBV 141715Z AUTO 00000KT 10SM -RA BKN110 15/09 A3000 RMK AO2 T01500093
KHBV 141655Z AUTO 00000KT 10SM BKN120 14/09 A3000 RMK AO2 T01440090
KHBV 141635Z AUTO 00000KT 10SM BKN120 14/08 A3000 RMK AO2 T01380082
KHBV 141615Z AUTO 00000KT 10SM CLR 13/08 A2999 RMK AO2 T01320076
KHBV 141555Z AUTO 00000KT 10SM CLR 13/07 A3000 RMK AO2 T01260069
KHBV 141535Z AUTO 00000KT 10SM CLR 12/06 A3000 RMK AO2 T01210063
KHBV 141515Z AUTO 00000KT 10SM CLR 12/06 A2998 RMK AO2 T01170061
KHBV 141455Z AUTO 00000KT 10SM CLR 11/06 A2998 RMK AO2 T01110062
KHBV 141435Z AUTO 00000KT 10SM CLR 10/06 A2996 RMK AO2 T01030060
KHBV 141415Z AUTO 00000KT 10SM CLR 10/06 A2998 RMK AO2 T00960058
KHBV 141355Z AUTO 00000KT 10SM CLR 09/06 A2995 RMK AO2 T00910056
KHBV 141335Z AUTO 00000KT 10SM CLR 09/06 A2994 RMK AO2 T00890055
KHBV 141315Z AUTO 00000KT 10SM CLR 09/06 A2995 RMK AO2 T00880056
KHBV 141255Z AUTO 00000KT 10SM CLR 09/06 A2993 RMK AO2 T00860055
KHBV 141235Z AUTO 00000KT 10SM CLR 09/05 A2993 RMK AO2 T00870047
KHBV 141215Z AUTO 00000KT 10SM CLR 09/04 A2992 RMK AO2 T00850044
KHBV 141155Z AUTO 00000KT 10SM CLR 08/04 A2991 RMK AO2 T00840044 10214 21001
KHBV 141135Z AUTO 00000KT 10SM CLR 08/05 A2992 RMK AO2 T00830045
KHBV 141115Z AUTO 00000KT 10SM CLR 08/05 A2991 RMK AO2 T00820045
KHBV 141055Z AUTO 00000KT 10SM CLR 08/05 A2992 RMK AO2 T00810045
KHBV 141035Z AUTO 00000KT 10SM CLR 09/04 A2991 RMK AO2 T00850044
KHBV 141015Z AUTO 00000KT 10SM CLR 08/04 A2991 RMK AO2 T00840044
KHBV 140955Z AUTO 00000KT 10SM CLR 09/04 A2991 RMK AO2 T00850044
KHBV 140935Z AUTO 00000KT 10SM CLR 09/04 A2993 RMK AO2 T00890044
KHBV 140915Z AUTO 00000KT 10SM CLR 09/04 A2993 RMK AO2 T00930044
KHBV 140855Z AUTO 00000KT 10SM CLR 10/04 A2992 RMK AO2 T00950043
KHBV 140835Z AUTO 00000KT 10SM CLR 10/04 A2993 RMK AO2 T00950042
KHBV 140815Z AUTO 00000KT 10SM CLR 10/04 A2994 RMK AO2 T00990043
KHBV 140755Z AUTO 00000KT 10SM CLR 10/04 A2994 RMK AO2 T01020037
KHBV 140735Z AUTO 00000KT 10SM CLR 10/04 A2994 RMK AO2 T00990038
KHBV 140715Z AUTO 00000KT 10SM CLR 11/03 A2994 RMK AO2 T01050034
KHBV 140655Z AUTO 00000KT 10SM CLR 11/03 A2995 RMK AO2 T01080030
KHBV 140635Z AUTO 00000KT 10SM CLR 11/03 A2996 RMK AO2 T01080031
KHBV 140615Z AUTO 00000KT 10SM CLR 10/03 A2996 RMK AO2 T01030034
KHBV 140555Z AUTO 00000KT 10SM CLR 10/03 A2997 RMK AO2 T01040034 10214 21001 402141001